Time;durP1;ratioP1;P1;durP2;ratioP2;P2;SDS_P1;SDS_P2;PMS_P1;PMS_P2;Temp;Humidity;BMP_temperature;BMP_pressure;BME280_temperature;BME280_humidity;BME280_pressure;Samples;Min_cycle;Max_cycle;Signal;HPM_P1;HPM_P2
2022/11/12 00:01:54;;;;;;;12.30;10.17;;;;;;;7.58;95.57;100306.25;5059904;27;102754;-65
2022/11/12 00:04:42;;;;;;;11.53;9.30;;;;;;;7.68;94.56;100305.03;5056254;27;104609;-65
2022/11/12 00:07:30;;;;;;;10.27;8.30;;;;;;;7.76;93.91;100296.88;5057316;27;103566;-65
2022/11/12 00:10:16;;;;;;;10.17;8.37;;;;;;;7.84;93.53;100294.81;5058847;27;103131;-65
2022/11/12 00:13:03;;;;;;;8.47;7.30;;;;;;;7.75;92.54;100292.53;5058981;27;103236;-65
2022/11/12 00:15:49;;;;;;;9.07;6.80;;;;;;;7.83;92.88;100286.06;5058293;27;102936;-66
2022/11/12 00:18:36;;;;;;;8.30;7.50;;;;;;;7.85;92.52;100288.66;5058524;27;104125;-65
2022/11/12 00:21:24;;;;;;;11.77;9.43;;;;;;;7.78;92.51;100289.75;5061660;27;103131;-65
2022/11/12 00:24:10;;;;;;;11.40;9.33;;;;;;;7.67;93.70;100292.78;5054385;27;102943;-66
2022/11/12 00:26:56;;;;;;;9.33;8.33;;;;;;;7.80;93.35;100287.97;5058687;27;102668;-65
2022/11/12 00:29:43;;;;;;;12.00;9.57;;;;;;;7.82;92.28;100286.13;5058031;27;103625;-66
2022/11/12 00:32:30;;;;;;;11.20;8.57;;;;;;;7.81;92.57;100289.66;5058870;27;103128;-66
2022/11/12 00:35:16;;;;;;;10.37;7.77;;;;;;;7.78;93.20;100280.09;5058357;27;102904;-65
2022/11/12 00:38:04;;;;;;;8.80;7.20;;;;;;;7.86;92.50;100291.22;5056064;27;102636;-65
2022/11/12 00:40:51;;;;;;;12.40;9.87;;;;;;;7.79;92.59;100291.50;5057536;27;103175;-66
2022/11/12 00:43:37;;;;;;;10.30;8.20;;;;;;;7.83;92.02;100301.00;5058877;27;103004;-65
2022/11/12 00:46:24;;;;;;;10.53;8.33;;;;;;;7.76;92.42;100296.88;5058492;27;102627;-65
2022/11/12 00:49:10;;;;;;;11.07;8.97;;;;;;;7.72;92.25;100296.09;5054493;27;103595;-65
2022/11/12 00:51:57;;;;;;;9.33;6.90;;;;;;;7.78;91.53;100287.13;5058439;27;103986;-65
2022/11/12 00:54:45;;;;;;;12.57;9.30;;;;;;;7.72;90.77;100290.00;5060049;27;103203;-69
2022/11/12 00:57:31;;;;;;;12.50;8.40;;;;;;;7.60;90.67;100283.41;5061870;27;102759;-70
2022/11/12 01:00:19;;;;;;;7.83;7.03;;;;;;;7.63;91.31;100282.44;5063195;27;102872;-70
2022/11/12 01:03:05;;;;;;;12.07;9.07;;;;;;;7.45;90.95;100287.44;5059953;27;103966;-70
2022/11/12 01:05:52;;;;;;;13.40;10.03;;;;;;;6.99;93.04;100292.50;5058696;27;103115;-70
2022/11/12 01:08:39;;;;;;;11.70;9.23;;;;;;;7.10;93.58;100287.78;5061167;27;102969;-70
2022/11/12 01:11:29;;;;;;;9.07;8.07;;;;;;;7.30;93.41;100287.94;5061554;27;103057;-70
2022/11/12 01:14:15;;;;;;;11.90;8.47;;;;;;;7.34;92.94;100281.69;5059375;27;103708;-70
2022/11/12 01:17:01;;;;;;;9.93;8.50;;;;;;;7.30;92.35;100280.06;5059536;27;103171;-70
2022/11/12 01:19:48;;;;;;;10.77;8.70;;;;;;;7.15;92.28;100292.88;5057722;27;102599;-70
2022/11/12 01:22:34;;;;;;;11.97;9.77;;;;;;;7.24;94.04;100293.41;5062646;27;103213;-70
2022/11/12 01:25:21;;;;;;;13.93;10.27;;;;;;;7.26;94.57;100296.00;5060168;27;104050;-70
2022/11/12 01:28:09;;;;;;;11.70;9.20;;;;;;;7.30;94.67;100293.19;5061181;27;103105;-70
2022/11/12 01:30:55;;;;;;;9.53;8.03;;;;;;;7.40;93.42;100289.38;5061754;27;103088;-70
2022/11/12 01:33:43;;;;;;;11.43;9.67;;;;;;;7.31;92.02;100286.19;5061087;27;102624;-70
2022/11/12 01:36:32;;;;;;;9.00;7.00;;;;;;;7.35;92.41;100275.53;5064559;27;104116;-70
2022/11/12 01:39:18;;;;;;;11.37;9.73;;;;;;;7.04;92.27;100280.09;5061568;27;103065;-70
2022/11/12 01:42:05;;;;;;;12.77;8.77;;;;;;;6.86;93.95;100275.44;5060434;27;102577;-69
2022/11/12 01:44:53;;;;;;;13.03;10.33;;;;;;;6.48;96.38;100274.03;5061275;27;103848;-70
2022/11/12 01:47:39;;;;;;;11.37;10.10;;;;;;;6.38;97.00;100276.06;5060203;27;103296;-70
2022/11/12 01:50:29;;;;;;;12.77;10.60;;;;;;;6.57;97.01;100268.47;5059428;27;103121;-70
2022/11/12 01:53:16;;;;;;;12.20;10.27;;;;;;;6.49;96.49;100264.38;5060535;27;103006;-70
2022/11/12 01:56:05;;;;;;;10.80;9.17;;;;;;;6.82;96.07;100268.56;5060949;27;104383;-70
2022/11/12 01:58:55;;;;;;;12.27;9.50;;;;;;;6.80;95.71;100265.13;5060053;27;104166;-70
2022/11/12 02:01:43;;;;;;;8.87;7.70;;;;;;;6.84;95.39;100261.50;5058011;27;103153;-70
2022/11/12 02:04:30;;;;;;;9.63;8.63;;;;;;;6.92;95.70;100252.44;5061458;27;102868;-70
2022/11/12 02:07:18;;;;;;;9.13;8.20;;;;;;;7.01;94.93;100251.28;5060868;27;102812;-70
2022/11/12 02:10:07;;;;;;;9.83;8.80;;;;;;;7.00;94.65;100252.19;5063529;27;103206;-70
2022/11/12 02:15:59;;;;;;;9.57;7.77;;;;;;;7.17;93.18;100249.84;5056149;27;103299;-70
2022/11/12 02:18:46;;;;;;;7.30;6.50;;;;;;;7.18;92.68;100240.19;5063495;27;103104;-70
2022/11/12 02:21:35;;;;;;;12.50;8.60;;;;;;;7.20;92.33;100239.22;5061857;27;103704;-70
2022/11/12 02:24:35;;;;;;;10.17;8.27;;;;;;;7.08;91.54;100239.63;5059698;27;103098;-70
2022/11/12 02:27:23;;;;;;;8.87;7.57;;;;;;;7.13;91.95;100242.97;5059156;27;102578;-70
2022/11/12 02:30:11;;;;;;;12.13;10.17;;;;;;;6.79;92.52;100232.72;5062233;27;104925;-71
2022/11/12 02:32:57;;;;;;;9.60;8.67;;;;;;;6.74;93.63;100242.53;5059247;27;102677;-70
2022/11/12 02:35:44;;;;;;;11.27;9.77;;;;;;;6.53;94.88;100235.34;5058706;27;103154;-70
2022/11/12 02:38:32;;;;;;;8.07;7.23;;;;;;;6.79;94.54;100230.09;5062297;27;102810;-70
2022/11/12 02:41:18;;;;;;;10.33;9.17;;;;;;;6.43;95.65;100225.19;5059523;27;102605;-70
2022/11/12 02:44:05;;;;;;;9.37;7.07;;;;;;;6.65;95.99;100228.84;5059464;27;103699;-70
2022/11/12 02:46:51;;;;;;;11.33;9.67;;;;;;;6.60;94.25;100230.75;5059428;27;103104;-70
2022/11/12 02:49:38;;;;;;;9.73;7.80;;;;;;;6.55;95.54;100240.53;5059674;27;102961;-70
2022/11/12 02:52:24;;;;;;;9.57;8.33;;;;;;;6.64;94.72;100238.50;5059529;27;102857;-70
2022/11/12 02:55:13;;;;;;;8.50;6.77;;;;;;;6.72;94.44;100246.13;5059634;27;103314;-70
2022/11/12 02:58:00;;;;;;;7.20;6.50;;;;;;;6.71;93.46;100241.78;5062082;27;103143;-70
2022/11/12 03:00:47;;;;;;;9.10;8.27;;;;;;;6.81;93.39;100245.81;5059606;27;102758;-70
2022/11/12 03:03:33;;;;;;;8.93;7.70;;;;;;;6.80;92.99;100238.84;5060402;27;103152;-70
2022/11/12 03:06:20;;;;;;;8.03;6.90;;;;;;;6.86;93.40;100242.13;5059126;27;103203;-70
2022/11/12 03:09:06;;;;;;;8.77;7.73;;;;;;;6.91;92.08;100247.22;5061293;27;102674;-70
2022/11/12 03:11:54;;;;;;;9.83;8.10;;;;;;;6.78;92.79;100248.53;5057423;27;102704;-69
2022/11/12 03:14:40;;;;;;;8.97;8.07;;;;;;;6.47;93.25;100247.81;5060581;27;104441;-70
2022/11/12 03:17:27;;;;;;;9.23;7.73;;;;;;;6.57;93.66;100249.25;5062817;27;104012;-70
2022/11/12 03:20:14;;;;;;;9.07;7.20;;;;;;;6.58;93.43;100253.56;5061086;27;103100;-70
2022/11/12 03:23:02;;;;;;;8.33;7.43;;;;;;;6.69;92.10;100246.22;5059246;27;103054;-70
2022/11/12 03:25:48;;;;;;;6.77;6.10;;;;;;;6.67;92.59;100253.28;5058375;27;102659;-69
2022/11/12 03:28:36;;;;;;;7.90;7.10;;;;;;;6.68;92.56;100249.78;5057868;27;103244;-70
2022/11/12 03:31:23;;;;;;;6.53;5.83;;;;;;;6.67;92.06;100243.66;5059145;27;103322;-69
2022/11/12 03:34:10;;;;;;;7.67;6.97;;;;;;;6.61;91.95;100242.97;5058588;27;103068;-70
2022/11/12 03:36:57;;;;;;;7.07;5.67;;;;;;;6.45;93.28;100244.38;5057761;27;103784;-70
2022/11/12 03:39:43;;;;;;;6.73;6.13;;;;;;;6.62;92.39;100239.44;5057501;27;103227;-70
2022/11/12 03:42:29;;;;;;;7.33;6.53;;;;;;;6.66;91.39;100243.69;5058029;27;103237;-69
2022/11/12 03:45:19;;;;;;;6.17;5.57;;;;;;;6.66;91.28;100243.69;5062162;27;102788;-70
2022/11/12 03:48:06;;;;;;;7.13;5.13;;;;;;;6.64;91.75;100243.75;5057055;27;103549;-70
2022/11/12 03:50:52;;;;;;;6.80;6.10;;;;;;;6.68;90.86;100244.50;5058606;27;103198;-70
2022/11/12 03:53:38;;;;;;;6.87;5.60;;;;;;;6.67;90.25;100243.66;5062421;27;103111;-70
2022/11/12 03:56:25;;;;;;;6.90;6.20;;;;;;;6.67;90.18;100248.03;5064280;27;102553;-70
2022/11/12 03:59:11;;;;;;;7.07;6.37;;;;;;;6.61;89.72;100258.72;5062895;27;102695;-70
2022/11/12 04:01:59;;;;;;;6.07;5.57;;;;;;;6.63;90.51;100257.78;5055244;27;103104;-70
2022/11/12 04:10:54;;;;;;;5.87;5.17;;;;;;;6.54;90.48;100251.97;5058215;27;102956;-71
2022/11/12 04:13:41;;;;;;;6.80;6.03;;;;;;;6.53;90.25;100245.00;5054503;27;104054;-70
2022/11/12 04:22:39;;;;;;;6.00;5.33;;;;;;;6.36;91.64;100251.63;5054640;27;103515;-70
2022/11/12 04:28:32;;;;;;;5.70;4.70;;;;;;;6.41;91.27;100248.84;5038701;27;103154;-70
2022/11/12 04:31:17;;;;;;;5.27;4.77;;;;;;;6.39;91.57;100246.28;5059343;27;102643;-70
2022/11/12 04:37:06;;;;;;;4.80;4.23;;;;;;;6.36;92.88;100240.28;5058552;27;103236;-70
2022/11/12 04:39:53;;;;;;;6.83;5.50;;;;;;;6.31;92.52;100245.69;5061139;27;103172;-70
2022/11/12 04:45:47;;;;;;;7.03;6.33;;;;;;;6.28;92.68;100239.66;5058971;27;102854;-70
2022/11/12 04:48:33;;;;;;;7.73;6.00;;;;;;;6.48;92.38;100223.28;5060941;27;103662;-70
2022/11/12 04:54:25;;;;;;;5.80;5.20;;;;;;;6.45;91.50;100223.38;5060518;27;104250;-70
2022/11/12 04:57:12;;;;;;;6.63;5.60;;;;;;;6.53;91.87;100232.72;5061217;27;103906;-70
2022/11/12 04:59:58;;;;;;;5.30;4.80;;;;;;;6.58;91.44;100246.56;5060451;27;103245;-70
2022/11/12 05:02:45;;;;;;;5.17;4.67;;;;;;;6.61;91.00;100245.59;5061387;27;102537;-70
2022/11/12 05:05:31;;;;;;;6.17;5.57;;;;;;;6.60;91.06;100246.50;5057957;27;102621;-69
2022/11/12 05:08:19;;;;;;;8.23;5.97;;;;;;;6.46;91.34;100259.22;5060272;27;104034;-70
2022/11/12 05:11:07;;;;;;;6.53;5.93;;;;;;;6.55;91.58;100253.66;5064442;27;103598;-70
2022/11/12 05:13:58;;;;;;;7.63;6.17;;;;;;;6.51;91.31;100250.31;5061402;27;103121;-70
2022/11/12 05:16:45;;;;;;;5.87;4.73;;;;;;;6.63;91.52;100254.28;5060925;27;103015;-70
2022/11/12 05:19:32;;;;;;;5.20;4.70;;;;;;;6.57;90.96;100247.47;5059982;27;102866;-70
2022/11/12 05:22:18;;;;;;;6.03;5.43;;;;;;;6.43;92.46;100248.81;5062017;27;103194;-70
2022/11/12 05:25:24;;;;;;;5.97;5.40;;;;;;;6.43;92.24;100245.28;5060166;27;103199;-70
2022/11/12 05:28:12;;;;;;;6.33;5.73;;;;;;;6.22;92.73;100251.19;5061925;27;102627;-71
2022/11/12 05:30:59;;;;;;;5.73;5.13;;;;;;;6.43;93.13;100251.44;5061317;27;102609;-71
2022/11/12 05:33:45;;;;;;;8.10;5.80;;;;;;;6.31;92.97;100250.94;5060732;27;103209;-71
2022/11/12 05:36:32;;;;;;;5.90;5.30;;;;;;;6.14;92.76;100249.72;5058674;27;103137;-71
2022/11/12 05:39:18;;;;;;;7.47;6.00;;;;;;;6.21;93.69;100253.84;5062023;27;102626;-71
2022/11/12 05:42:04;;;;;;;5.33;4.83;;;;;;;6.18;94.82;100260.06;5059992;27;103004;-70
2022/11/12 05:44:59;;;;;;;5.90;5.30;;;;;;;6.41;93.46;100257.59;5061837;27;104037;-70
2022/11/12 05:47:46;;;;;;;5.97;5.37;;;;;;;6.35;92.95;100247.28;5060088;27;103227;-71
2022/11/12 05:50:32;;;;;;;6.13;5.53;;;;;;;6.33;93.11;100248.25;5062160;27;102598;-70
2022/11/12 05:53:39;;;;;;;6.27;5.50;;;;;;;6.36;92.81;100259.50;5061841;27;104341;-72
2022/11/12 05:56:25;;;;;;;5.43;4.93;;;;;;;6.43;92.12;100248.81;5062828;27;103792;-70
2022/11/12 05:59:13;;;;;;;7.77;6.00;;;;;;;6.27;92.20;100269.41;5066026;27;103120;-70
2022/11/12 06:02:01;;;;;;;5.63;5.03;;;;;;;6.43;92.89;100266.28;5061964;27;102683;-70
2022/11/12 06:04:48;;;;;;;6.50;5.27;;;;;;;6.38;93.12;100272.56;5066631;27;102572;-70
2022/11/12 06:07:35;;;;;;;7.43;6.00;;;;;;;6.38;92.36;100273.44;5062857;27;103794;-70
2022/11/12 06:10:21;;;;;;;5.07;4.13;;;;;;;6.49;92.22;100272.25;5066139;27;103165;-69
2022/11/12 06:13:08;;;;;;;5.73;5.07;;;;;;;6.43;91.68;100267.22;5061791;27;102810;-69
2022/11/12 06:15:55;;;;;;;5.83;5.30;;;;;;;6.51;91.71;100270.44;5066191;27;103893;-70
2022/11/12 06:18:42;;;;;;;6.03;5.43;;;;;;;6.36;91.93;100272.63;5067153;27;103247;-69
2022/11/12 06:21:29;;;;;;;5.63;5.13;;;;;;;6.32;92.16;100275.38;5066644;27;102966;-70
2022/11/12 06:24:15;;;;;;;5.57;5.07;;;;;;;6.39;92.90;100285.69;5064635;27;102698;-71
2022/11/12 06:27:02;;;;;;;5.47;4.97;;;;;;;6.43;92.89;100279.41;5060857;27;103992;-72
2022/11/12 06:29:48;;;;;;;7.87;5.73;;;;;;;6.48;92.36;100275.78;5052256;27;104460;-71
2022/11/12 06:32:35;;;;;;;5.43;4.37;;;;;;;6.49;91.71;100275.72;5060889;27;103279;-72
2022/11/12 06:35:23;;;;;;;6.77;5.17;;;;;;;6.43;92.36;100280.34;5060073;27;102589;-72
2022/11/12 06:38:10;;;;;;;5.57;5.07;;;;;;;6.41;93.09;100281.22;5062289;27;103092;-72
2022/11/12 06:40:56;;;;;;;6.70;5.53;;;;;;;6.33;93.60;100287.63;5057651;27;103275;-71
2022/11/12 06:43:43;;;;;;;6.20;5.17;;;;;;;6.41;92.98;100281.22;5058162;27;103149;-71
2022/11/12 06:46:29;;;;;;;5.67;5.10;;;;;;;6.48;92.59;100295.03;5061940;27;102666;-71
2022/11/12 06:49:16;;;;;;;6.13;5.53;;;;;;;6.45;92.97;100283.75;5059436;27;104123;-70
2022/11/12 06:52:04;;;;;;;6.77;6.07;;;;;;;6.40;93.26;100281.25;5061075;27;103522;-70
2022/11/12 06:54:51;;;;;;;6.33;5.13;;;;;;;6.55;93.19;100270.28;5059707;27;103138;-71
2022/11/12 06:57:38;;;;;;;9.80;6.60;;;;;;;6.39;93.06;100275.16;5056840;27;103023;-71
2022/11/12 07:00:24;;;;;;;5.77;5.27;;;;;;;6.60;93.03;100283.25;5056864;27;102618;-72
2022/11/12 07:03:13;;;;;;;5.10;4.60;;;;;;;6.66;93.11;100272.56;5056615;27;103964;-72
2022/11/12 07:06:04;;;;;;;8.73;6.13;;;;;;;6.49;92.87;100272.25;5048006;27;103061;-71
2022/11/12 07:08:52;;;;;;;4.97;4.47;;;;;;;6.69;92.87;100269.84;5056988;27;102898;-72
2022/11/12 07:11:38;;;;;;;5.23;4.47;;;;;;;6.84;92.16;100277.25;5059615;27;106236;-72
2022/11/12 07:14:25;;;;;;;5.90;5.17;;;;;;;6.94;91.32;100271.63;5066254;27;103788;-72
2022/11/12 07:17:11;;;;;;;6.87;6.03;;;;;;;6.78;91.25;100277.44;5065933;27;103111;-72
2022/11/12 07:19:58;;;;;;;6.27;5.30;;;;;;;6.74;92.73;100275.81;5066969;27;102538;-72
2022/11/12 07:22:49;;;;;;;4.80;4.30;;;;;;;6.95;92.53;100281.25;5062305;27;103472;-72
2022/11/12 07:25:37;;;;;;;6.40;5.77;;;;;;;7.02;92.28;100275.81;5057422;27;103177;-73
2022/11/12 07:28:23;;;;;;;6.10;5.40;;;;;;;7.13;91.52;100269.25;5059197;27;103089;-73
2022/11/12 07:31:12;;;;;;;7.70;6.80;;;;;;;6.86;91.69;100276.28;5050483;27;102693;-71
2022/11/12 07:33:59;;;;;;;7.80;7.00;;;;;;;6.64;93.21;100277.88;5053241;27;103490;-74
2022/11/12 07:36:47;;;;;;;7.47;6.73;;;;;;;6.86;92.98;100268.41;5057645;27;103130;-76
2022/11/12 07:39:34;;;;;;;8.83;6.77;;;;;;;6.74;92.70;100278.44;5055944;27;103182;-73
2022/11/12 07:42:21;;;;;;;6.67;6.00;;;;;;;6.90;93.47;100272.66;5055820;27;102650;-70
2022/11/12 07:45:09;;;;;;;6.50;5.80;;;;;;;7.17;91.89;100265.63;5056220;27;103558;-71
2022/11/12 07:47:58;;;;;;;7.63;6.53;;;;;;;7.41;92.05;100264.75;5057036;27;103070;-73
2022/11/12 07:50:45;;;;;;;6.60;6.00;;;;;;;7.71;90.62;100261.97;5055004;27;103246;-73
2022/11/12 07:53:31;;;;;;;8.07;7.03;;;;;;;7.19;89.27;100258.53;5058393;27;102786;-78
2022/11/12 07:56:22;;;;;;;6.70;6.03;;;;;;;7.51;91.61;100260.06;5062283;27;103692;-73
2022/11/12 07:59:09;;;;;;;8.60;6.70;;;;;;;7.35;90.81;100269.41;5061604;27;103946;-74
2022/11/12 08:01:56;;;;;;;8.93;6.30;;;;;;;7.29;91.35;100264.34;5056143;27;103257;-77
2022/11/12 08:04:43;;;;;;;7.33;5.80;;;;;;;7.14;90.47;100268.34;5054717;27;102802;-75
2022/11/12 08:07:29;;;;;;;7.40;6.57;;;;;;;7.09;91.88;100267.66;5053619;27;102658;-74
2022/11/12 08:10:16;;;;;;;7.33;5.53;;;;;;;7.11;92.33;100262.34;5063503;27;103988;-81
2022/11/12 08:13:02;;;;;;;8.20;6.47;;;;;;;7.46;91.48;100264.63;5060547;27;103134;-76
2022/11/12 08:15:51;;;;;;;7.77;6.67;;;;;;;7.75;89.56;100277.59;5061307;27;103016;-79
2022/11/12 08:18:38;;;;;;;5.73;5.13;;;;;;;7.90;89.35;100276.19;5060628;27;103079;-76
2022/11/12 08:21:24;;;;;;;8.20;5.90;;;;;;;8.04;88.93;100271.25;5054156;27;103953;-77
2022/11/12 08:24:10;;;;;;;7.70;6.50;;;;;;;8.16;88.32;100274.31;5048873;27;102978;-75
2022/11/12 08:26:57;;;;;;;6.13;5.53;;;;;;;8.10;88.84;100274.53;5056539;27;102643;-76
2022/11/12 08:29:43;;;;;;;7.03;5.77;;;;;;;8.38;88.37;100273.50;5056949;27;103774;-75
2022/11/12 08:32:32;;;;;;;6.53;5.93;;;;;;;8.43;88.16;100264.50;5058560;27;104175;-77
2022/11/12 08:35:18;;;;;;;5.93;5.33;;;;;;;8.77;86.33;100273.69;5054939;27;103608;-76
2022/11/12 08:38:06;;;;;;;9.23;6.60;;;;;;;8.55;85.57;100263.19;5057166;27;102751;-75
2022/11/12 08:40:52;;;;;;;8.20;6.53;;;;;;;8.50;86.43;100263.38;5055062;27;103995;-75
2022/11/12 08:43:40;;;;;;;7.80;7.10;;;;;;;8.57;86.60;100264.81;5056169;27;104132;-74
2022/11/12 08:46:26;;;;;;;6.40;5.80;;;;;;;8.66;86.47;100261.84;5059847;27;103231;-77
2022/11/12 08:49:14;;;;;;;6.87;6.07;;;;;;;8.92;86.79;100254.66;5056008;27;102737;-75
2022/11/12 08:52:01;;;;;;;6.67;6.00;;;;;;;9.10;84.65;100261.78;5057609;27;104241;-75
2022/11/12 08:54:48;;;;;;;7.10;6.37;;;;;;;9.13;85.25;100253.75;5056699;27;103772;-75
2022/11/12 08:57:39;;;;;;;6.83;6.03;;;;;;;9.27;84.78;100260.16;5052530;27;103286;-77
2022/11/12 09:00:26;;;;;;;7.83;6.83;;;;;;;9.64;82.67;100263.84;5056343;27;103471;-72
2022/11/12 09:03:15;;;;;;;7.30;6.60;;;;;;;9.85;81.39;100269.00;5060268;27;102801;-76
2022/11/12 09:06:05;;;;;;;6.67;5.97;;;;;;;9.71;82.39;100266.13;5046350;27;103169;-76
2022/11/12 09:08:51;;;;;;;8.03;6.63;;;;;;;9.71;81.39;100266.13;5056481;27;103011;-75
2022/11/12 09:11:38;;;;;;;8.27;6.27;;;;;;;9.73;81.98;100264.31;5056695;27;103017;-75
2022/11/12 09:14:25;;;;;;;9.90;6.70;;;;;;;10.12;81.57;100260.78;5061862;27;104461;-78
2022/11/12 09:17:12;;;;;;;6.30;5.73;;;;;;;9.73;81.66;100259.03;5059343;27;103217;-75
2022/11/12 09:19:58;;;;;;;6.83;6.13;;;;;;;9.93;81.90;100254.63;5055209;27;103113;-75
2022/11/12 09:22:46;;;;;;;7.33;5.07;;;;;;;10.06;80.09;100256.63;5059493;27;102748;-76
2022/11/12 09:25:33;;;;;;;5.97;5.37;;;;;;;9.76;81.19;100247.47;5060013;27;102892;-75
2022/11/12 09:28:19;;;;;;;5.83;5.27;;;;;;;9.86;80.84;100244.34;5066729;27;103717;-76
2022/11/12 09:31:07;;;;;;;6.20;5.60;;;;;;;9.98;80.45;100239.44;5061537;27;103151;-75
2022/11/12 09:33:53;;;;;;;5.63;5.03;;;;;;;10.18;80.66;100229.72;5059239;27;102639;-76
2022/11/12 09:36:40;;;;;;;5.83;5.10;;;;;;;10.16;81.25;100228.91;5062980;27;103046;-75
2022/11/12 09:39:28;;;;;;;6.20;5.60;;;;;;;10.11;80.25;100232.66;5064591;27;103551;-77
2022/11/12 09:42:17;;;;;;;5.17;4.67;;;;;;;10.36;79.62;100238.53;5059617;27;103151;-76
2022/11/12 09:45:07;;;;;;;6.67;4.77;;;;;;;10.38;78.99;100234.06;5060298;27;102909;-77
2022/11/12 09:47:58;;;;;;;6.63;4.90;;;;;;;10.74;78.15;100227.00;5060152;27;102798;-76
2022/11/12 09:50:56;;;;;;;7.10;5.77;;;;;;;10.42;79.19;100233.81;5062299;27;103217;-77
2022/11/12 09:53:47;;;;;;;7.00;5.63;;;;;;;10.46;79.38;100229.25;5064365;27;102967;-75
2022/11/12 09:56:37;;;;;;;5.93;5.37;;;;;;;10.24;79.58;100233.84;5063926;27;102815;-75
2022/11/12 09:59:28;;;;;;;6.37;5.63;;;;;;;10.45;78.59;100232.81;5061187;27;102667;-74
2022/11/12 10:02:26;;;;;;;6.47;5.77;;;;;;;10.81;78.33;100233.66;5060839;27;103112;-75
2022/11/12 10:05:21;;;;;;;7.90;4.40;;;;;;;11.41;76.85;100231.53;5063428;27;103168;-76
2022/11/12 10:08:25;;;;;;;4.00;3.70;;;;;;;11.70;76.16;100230.91;5065011;27;102677;-75
2022/11/12 10:11:30;;;;;;;5.60;4.90;;;;;;;11.00;76.51;100229.19;5066952;27;102761;-75
2022/11/12 10:14:32;;;;;;;5.50;4.90;;;;;;;11.46;76.04;100226.84;5063548;27;104154;-75
2022/11/12 10:17:28;;;;;;;5.43;4.93;;;;;;;11.22;76.14;100225.47;5063212;27;103145;-75
2022/11/12 10:20:21;;;;;;;4.73;4.33;;;;;;;11.45;76.57;100223.34;5064303;27;102776;-75
2022/11/12 10:23:17;;;;;;;5.07;4.57;;;;;;;11.45;75.43;100225.16;5059524;27;103839;-75
2022/11/12 10:26:11;;;;;;;5.93;5.00;;;;;;;11.59;75.51;100222.63;5059585;27;103202;-75
2022/11/12 10:29:07;;;;;;;6.23;4.97;;;;;;;11.77;75.53;100219.03;5064917;27;103156;-79
2022/11/12 10:31:54;;;;;;;5.50;5.00;;;;;;;11.96;73.36;100219.75;5056711;27;102986;-75
2022/11/12 10:34:41;;;;;;;5.17;4.67;;;;;;;12.49;72.73;100208.00;5064522;27;102611;-75
2022/11/12 10:37:34;;;;;;;5.53;5.00;;;;;;;12.47;72.16;100215.16;5063316;27;103066;-74
2022/11/12 10:40:30;;;;;;;4.30;3.90;;;;;;;12.95;73.20;100204.41;5058692;27;103216;-75
2022/11/12 10:43:22;;;;;;;5.40;4.90;;;;;;;13.14;69.92;100202.41;5062856;27;102964;-75
2022/11/12 10:46:18;;;;;;;5.07;4.40;;;;;;;12.74;70.79;100197.72;5061391;27;103846;-75
2022/11/12 10:49:08;;;;;;;6.80;4.97;;;;;;;12.96;71.21;100208.78;5057740;27;103242;-75
2022/11/12 10:51:56;;;;;;;5.10;4.60;;;;;;;12.73;70.72;100201.28;5064385;27;103187;-75
2022/11/12 10:54:42;;;;;;;4.10;3.70;;;;;;;13.03;70.89;100201.28;5066725;27;102673;-75
2022/11/12 10:57:29;;;;;;;3.63;3.33;;;;;;;13.47;70.32;100193.38;5061346;27;102746;-75
2022/11/12 11:00:19;;;;;;;5.43;4.97;;;;;;;12.54;71.50;100201.50;5062632;27;104018;-75
2022/11/12 11:03:16;;;;;;;4.37;3.97;;;;;;;13.32;69.72;100192.50;5067012;27;103096;-75
2022/11/12 11:06:06;;;;;;;6.83;5.30;;;;;;;13.08;68.26;100189.50;5065039;27;102868;-75
2022/11/12 11:08:54;;;;;;;6.67;5.13;;;;;;;13.65;68.76;100190.44;5065373;27;102666;-75
2022/11/12 11:11:49;;;;;;;5.97;4.50;;;;;;;14.23;65.57;100184.97;5062038;27;103239;-75
2022/11/12 11:14:37;;;;;;;4.40;3.97;;;;;;;14.26;66.58;100182.13;5064053;27;103117;-75
2022/11/12 11:17:23;;;;;;;6.07;5.43;;;;;;;14.21;66.83;100181.56;5061177;27;102824;-75
2022/11/12 11:20:19;;;;;;;5.83;5.23;;;;;;;14.07;65.98;100175.44;5060586;27;104319;-75
2022/11/12 11:23:16;;;;;;;4.97;4.47;;;;;;;14.51;64.08;100170.81;5059604;27;103897;-75
2022/11/12 11:26:16;;;;;;;6.20;5.57;;;;;;;14.63;63.41;100162.00;5057614;27;103158;-75
2022/11/12 11:29:21;;;;;;;4.93;4.47;;;;;;;14.79;63.35;100156.53;5063738;27;102728;-75
2022/11/12 11:32:19;;;;;;;7.00;5.97;;;;;;;14.73;63.20;100163.13;5059141;27;103946;-75
2022/11/12 11:35:17;;;;;;;8.97;5.83;;;;;;;14.61;63.14;100160.41;5056732;27;103279;-75
2022/11/12 11:38:23;;;;;;;6.97;5.60;;;;;;;14.44;62.23;100159.72;5056225;27;103252;-75
2022/11/12 11:41:30;;;;;;;7.13;5.93;;;;;;;14.23;63.19;100161.06;5057103;27;102889;-75
2022/11/12 11:44:28;;;;;;;5.23;4.73;;;;;;;14.57;63.18;100166.91;5059298;27;103620;-75
2022/11/12 11:47:29;;;;;;;5.60;5.00;;;;;;;14.81;60.93;100154.63;5060434;27;103257;-75
2022/11/12 11:50:42;;;;;;;6.10;4.50;;;;;;;15.13;59.37;100150.63;5059410;27;103237;-75
2022/11/12 11:53:36;;;;;;;7.37;5.90;;;;;;;14.99;61.54;100156.03;5061286;27;102721;-75
2022/11/12 11:56:26;;;;;;;5.50;4.97;;;;;;;14.86;61.20;100145.38;5059943;27;102730;-75
2022/11/12 11:59:28;;;;;;;6.30;5.00;;;;;;;15.46;59.51;100148.38;5061583;27;103875;-75
2022/11/12 12:02:31;;;;;;;6.30;5.20;;;;;;;14.99;62.22;100146.25;5058932;27;103454;-75
2022/11/12 12:05:39;;;;;;;4.50;4.10;;;;;;;15.42;60.67;100136.19;5057889;27;102611;-75
2022/11/12 12:08:38;;;;;;;4.57;4.17;;;;;;;15.25;61.36;100132.97;5059902;27;102739;-75
2022/11/12 12:11:30;;;;;;;4.90;4.10;;;;;;;15.26;61.62;100129.34;5058148;27;104093;-75
2022/11/12 12:14:31;;;;;;;3.27;2.97;;;;;;;15.50;60.75;100123.19;5058176;27;103174;-75
2022/11/12 12:17:31;;;;;;;4.50;4.10;;;;;;;15.63;58.37;100129.34;5064198;27;102709;-75
2022/11/12 12:20:24;;;;;;;5.30;4.73;;;;;;;14.58;60.60;100126.03;5066847;27;103139;-75
2022/11/12 12:23:17;;;;;;;5.07;4.43;;;;;;;14.21;64.23;100127.56;5060895;27;104216;-76
2022/11/12 12:26:14;;;;;;;5.20;4.60;;;;;;;13.96;65.17;100122.97;5055599;27;103293;-75
2022/11/12 12:29:06;;;;;;;4.57;4.17;;;;;;;13.43;66.47;100122.81;5060658;27;102611;-75
2022/11/12 12:31:58;;;;;;;4.30;3.90;;;;;;;13.90;66.69;100118.91;5060012;27;104118;-75
2022/11/12 12:34:47;;;;;;;4.77;4.30;;;;;;;14.00;66.20;100121.84;5059053;27;104491;-75
2022/11/12 12:37:39;;;;;;;4.10;3.67;;;;;;;14.25;65.79;100121.09;5059769;27;103052;-75
2022/11/12 12:40:33;;;;;;;4.37;3.97;;;;;;;15.00;63.34;100112.50;5058092;27;102782;-75
2022/11/12 12:43:29;;;;;;;4.50;4.10;;;;;;;13.80;66.40;100123.09;5058281;27;102931;-76
2022/11/12 12:46:20;;;;;;;3.80;3.13;;;;;;;14.66;65.25;100115.75;5059517;27;103232;-75
2022/11/12 12:49:11;;;;;;;4.40;4.00;;;;;;;14.82;63.57;100109.28;5061275;27;103144;-75
2022/11/12 12:51:58;;;;;;;5.23;4.83;;;;;;;13.76;68.60;100104.78;5062725;27;102693;-76
2022/11/12 12:54:58;;;;;;;5.30;4.80;;;;;;;13.30;69.62;100102.34;5066285;27;103943;-75
2022/11/12 12:57:45;;;;;;;7.17;5.43;;;;;;;14.10;68.09;100092.84;5050666;27;104349;-73
2022/11/12 13:00:38;;;;;;;5.13;4.60;;;;;;;13.00;70.81;100096.22;5047490;27;102788;-74
2022/11/12 13:03:50;;;;;;;9.07;5.93;;;;;;;14.25;69.41;100084.75;5052252;27;103303;-76
2022/11/12 13:06:39;;;;;;;14.47;10.17;;;;;;;14.71;67.18;100084.38;5058618;27;103832;-74
2022/11/12 13:09:27;;;;;;;5.83;5.23;;;;;;;14.76;67.88;100084.91;5040853;27;103275;-75
2022/11/12 13:12:23;;;;;;;4.80;4.40;;;;;;;14.33;67.71;100078.94;5052117;27;103100;-76
2022/11/12 13:15:13;;;;;;;5.30;4.50;;;;;;;14.48;67.52;100077.94;5054433;27;102818;-77
2022/11/12 13:18:01;;;;;;;7.20;4.90;;;;;;;14.14;67.88;100073.09;5052116;27;103059;-76
2022/11/12 13:21:10;;;;;;;4.17;3.50;;;;;;;14.77;66.73;100070.63;5054253;27;103355;-77
2022/11/12 13:24:09;;;;;;;2.90;2.70;;;;;;;15.12;66.06;100057.59;5048972;27;103149;-76
2022/11/12 13:26:57;;;;;;;3.93;3.13;;;;;;;15.46;66.82;100057.81;5046809;27;102881;-73
2022/11/12 13:29:45;;;;;;;5.63;4.83;;;;;;;14.03;69.76;100063.19;5044655;27;103003;-76
2022/11/12 13:32:35;;;;;;;4.97;4.57;;;;;;;14.01;70.59;100065.06;5054142;27;103408;-74